METAR Data
IDs: Format: Raw Decoded Include TAF

Data at: 1746 UTC 25 Mar 2019

KGYB 251550Z AUTO 27005KT 7SM BKN007 BKN025 OVC038 22/20 A3015 RMK AO2 T02210204
KGYB 251250Z AUTO 00000KT 10SM OVC017 22/20 A3008 RMK AO2 T02200197
KGYB 251030Z AUTO 22006KT 10SM OVC013 22/20 A3004 RMK AO2 T02190197
KGYB 250810Z AUTO 21007KT 10SM OVC011 22/20 A3006 RMK AO2 T02200201
KGYB 250630Z AUTO 20007KT 10SM OVC015 22/20 A3007 RMK AO2 T02200202
KGYB 250530Z AUTO 20007KT 10SM OVC013 22/20 A3008 RMK AO2 T02200203
KGYB 250400Z AUTO 00000KT 10SM SCT013 22/20 A3006 RMK AO2 T02190202
KGYB 250050Z AUTO 18005KT 10SM CLR 26/20 A3000 RMK AO2 T02630195
KGYB 250010Z AUTO 18007KT 10SM CLR 28/19 A2999 RMK AO2 T02770192
KGYB 242350Z AUTO 18006KT 10SM CLR 28/18 A3000 RMK AO2 T02830184 10295 20246
KGYB 242315Z AUTO 17009G14KT 10SM SCT041 SCT050 29/19 A3000 RMK AO2 T02890190
KGYB 242300Z AUTO 19005KT 10SM SCT050 29/19 A3001 RMK AO2 T02850185
KGYB 242230Z AUTO 21008KT 10SM SCT050 29/18 A3001 RMK AO2 T02900183
KGYB 242220Z AUTO 22007G14KT 10SM SCT050 29/18 A3001 RMK AO2 T02900180
KGYB 242140Z AUTO 19008KT 10SM SCT040 BKN048 29/19 A3002 RMK AO2 T02870186
KGYB 242115Z AUTO 17006KT 10SM SCT038 BKN046 29/19 A3002 RMK AO2 T02860189
KGYB 242055Z AUTO 19008KT 10SM SCT036 BKN044 29/19 A3004 RMK AO2 T02850190
KGYB 242035Z AUTO 22007KT 10SM SCT036 SCT044 28/19 A3004 RMK AO2 T02830188
KGYB 242015Z AUTO 23008KT 10SM SCT037 BKN044 27/19 A3005 RMK AO2 T02720187
KGYB 241955Z AUTO 22009KT 10SM SCT032 BKN041 27/19 A3006 RMK AO2 T02730188
KGYB 241935Z AUTO 20007KT 10SM SCT032 BKN039 27/19 A3006 RMK AO2 T02710190
KGYB 241915Z AUTO 19011G15KT 160V220 10SM SCT028 SCT039 27/19 A3007 RMK AO2 T02700186
KGYB 241855Z AUTO 22007G15KT 10SM SCT026 SCT032 BKN039 27/19 A3008 RMK AO2 T02660190
KGYB 241835Z AUTO 20008KT 10SM SCT024 BKN032 BKN038 26/19 A3009 RMK AO2 T02580190
KGYB 241815Z AUTO 21009KT 10SM SCT022 BKN035 26/19 A3009 RMK AO2 T02560192
KGYB 241755Z AUTO 20010G14KT 10SM SCT020 OVC033 25/19 A3010 RMK AO2 T02470191 10248 20195
KGYB 241735Z AUTO 20009G14KT 10SM SCT020 SCT026 OVC033 25/19 A3011 RMK AO2 T02450188
KGYB 241715Z AUTO 19005KT 10SM BKN020 BKN026 24/19 A3011 RMK AO2 T02380188
KGYB 241655Z AUTO 20009KT 10SM SCT015 BKN022 BKN029 24/19 A3012 RMK AO2 T02400190
KGYB 241640Z AUTO 20007KT 10SM SCT015 BKN023 OVC029 23/19 A3012 RMK AO2 T02270187
KGYB 241615Z AUTO 19008KT 10SM BKN013 OVC022 22/19 A3012 RMK AO2 T02220187
KGYB 241555Z AUTO 20007KT 170V240 10SM BKN009 OVC015 22/19 A3012 RMK AO2 T02150192
KGYB 241535Z AUTO 20006KT 10SM OVC005 21/19 A3012 RMK AO2 T02050190
KGYB 241515Z AUTO 19005KT 10SM OVC005 20/19 A3012 RMK AO2 T02010190
KGYB 241455Z AUTO 20008KT 7SM OVC003 20/19 A3012 RMK AO2 T01980190
KGYB 241435Z AUTO 19006KT 7SM OVC003 20/19 A3012 RMK AO2 T01970190
KGYB 241415Z AUTO 19005KT 5SM BR OVC005 20/19 A3011 RMK AO2 T01950188
KGYB 241355Z AUTO 19005KT 7SM OVC005 20/19 A3010 RMK AO2 T01950187
KGYB 241335Z AUTO 19005KT 7SM OVC007 20/19 A3009 RMK AO2 T01960187
KGYB 241315Z AUTO 19004KT 7SM OVC007 20/19 A3009 RMK AO2 T01970187
KGYB 241255Z AUTO 19006KT 7SM OVC007 20/19 A3009 RMK AO2 T01970188
KGYB 241235Z AUTO 17004KT 7SM OVC007 20/19 A3008 RMK AO2 T01950186
KGYB 241215Z AUTO 16004KT 7SM OVC007 20/19 A3007 RMK AO2 T01950185
KGYB 241155Z AUTO 16003KT 7SM OVC009 20/19 A3008 RMK AO2 T01950185 10200 20194
KGYB 241135Z AUTO 16003KT 7SM OVC009 20/18 A3008 RMK AO2 T01950183
KGYB 241115Z AUTO 00000KT 7SM OVC007 20/18 A3008 RMK AO2 T01950183
KGYB 241055Z AUTO 00000KT 10SM OVC007 20/18 A3007 RMK AO2 T01950182
KGYB 241035Z AUTO 00000KT 10SM OVC007 20/18 A3007 RMK AO2 T01950182
KGYB 241015Z AUTO 17003KT 10SM OVC009 20/18 A3007 RMK AO2 T01950182
KGYB 240955Z AUTO 15003KT 10SM OVC009 20/18 A3007 RMK AO2 T01950181
KGYB 240935Z AUTO 16003KT 10SM OVC009 20/18 A3007 RMK AO2 T01960181
KGYB 240915Z AUTO 17004KT 10SM OVC009 20/18 A3008 RMK AO2 T01960181
KGYB 240855Z AUTO 16003KT 10SM OVC009 20/18 A3008 RMK AO2 T01960180
KGYB 240835Z AUTO 18004KT 10SM OVC009 20/18 A3008 RMK AO2 T01970180
KGYB 240815Z AUTO 18005KT 10SM OVC011 20/18 A3008 RMK AO2 T01970178
KGYB 240755Z AUTO 17005KT 10SM OVC013 20/18 A3008 RMK AO2 T02000180
KGYB 240735Z AUTO 17006KT 10SM OVC013 20/18 A3009 RMK AO2 T01970177
KGYB 240715Z AUTO 16005KT 10SM OVC013 20/18 A3009 RMK AO2 T01970177
KGYB 240655Z AUTO 16004KT 10SM BKN013 OVC018 20/18 A3009 RMK AO2 T01970177
KGYB 240635Z AUTO 17005KT 10SM OVC015 20/18 A3008 RMK AO2 T01960176
KGYB 240615Z AUTO 16006KT 10SM OVC015 20/18 A3008 RMK AO2 T01980175
KGYB 240555Z AUTO 17006KT 10SM BKN015 OVC049 20/18 A3008 RMK AO2 T02000175 10245 20200 402570170